sensor_id;sensor_type;location;lat;lon;timestamp;P1;durP1;ratioP1;P2;durP2;ratioP2
3405;SDS011;10008;48.682;9.016;2022-10-15T00:02:11;2.80;;;0.70;;
3405;SDS011;10008;48.682;9.016;2022-10-15T00:04:37;2.70;;;0.70;;
3405;SDS011;10008;48.682;9.016;2022-10-15T00:07:03;2.63;;;0.70;;
3405;SDS011;10008;48.682;9.016;2022-10-15T00:09:28;2.60;;;0.60;;
3405;SDS011;10008;48.682;9.016;2022-10-15T00:11:54;2.40;;;0.60;;
3405;SDS011;10008;48.682;9.016;2022-10-15T00:14:20;2.50;;;0.60;;
3405;SDS011;10008;48.682;9.016;2022-10-15T00:16:46;2.40;;;0.60;;
3405;SDS011;10008;48.682;9.016;2022-10-15T00:19:11;3.20;;;0.63;;
3405;SDS011;10008;48.682;9.016;2022-10-15T00:21:37;2.63;;;0.60;;
3405;SDS011;10008;48.682;9.016;2022-10-15T00:24:04;2.53;;;0.60;;
3405;SDS011;10008;48.682;9.016;2022-10-15T00:26:30;2.57;;;0.60;;
3405;SDS011;10008;48.682;9.016;2022-10-15T00:28:57;5.70;;;0.80;;
3405;SDS011;10008;48.682;9.016;2022-10-15T00:31:25;2.63;;;0.60;;
3405;SDS011;10008;48.682;9.016;2022-10-15T00:33:53;3.10;;;0.73;;
3405;SDS011;10008;48.682;9.016;2022-10-15T00:36:25;3.20;;;0.70;;
3405;SDS011;10008;48.682;9.016;2022-10-15T00:38:58;2.70;;;0.63;;
3405;SDS011;10008;48.682;9.016;2022-10-15T00:41:29;3.27;;;0.60;;
3405;SDS011;10008;48.682;9.016;2022-10-15T00:43:59;2.60;;;0.60;;
3405;SDS011;10008;48.682;9.016;2022-10-15T00:46:30;3.90;;;0.57;;
3405;SDS011;10008;48.682;9.016;2022-10-15T00:48:59;2.83;;;0.60;;
3405;SDS011;10008;48.682;9.016;2022-10-15T00:51:34;2.60;;;0.60;;
3405;SDS011;10008;48.682;9.016;2022-10-15T00:54:04;3.57;;;0.73;;
3405;SDS011;10008;48.682;9.016;2022-10-15T00:56:31;4.00;;;0.60;;
3405;SDS011;10008;48.682;9.016;2022-10-15T00:58:58;2.47;;;0.50;;
3405;SDS011;10008;48.682;9.016;2022-10-15T01:01:25;2.70;;;0.50;;
3405;SDS011;10008;48.682;9.016;2022-10-15T01:03:52;2.67;;;0.50;;
3405;SDS011;10008;48.682;9.016;2022-10-15T01:06:19;2.70;;;0.50;;
3405;SDS011;10008;48.682;9.016;2022-10-15T01:08:45;2.30;;;0.43;;
3405;SDS011;10008;48.682;9.016;2022-10-15T01:19:14;2.70;;;0.70;;
3405;SDS011;10008;48.682;9.016;2022-10-15T01:22:16;2.40;;;0.60;;
3405;SDS011;10008;48.682;9.016;2022-10-15T01:27:33;3.23;;;0.60;;
3405;SDS011;10008;48.682;9.016;2022-10-15T01:30:03;5.50;;;0.50;;
3405;SDS011;10008;48.682;9.016;2022-10-15T01:33:09;3.50;;;0.73;;
3405;SDS011;10008;48.682;9.016;2022-10-15T01:41:12;2.63;;;0.50;;
3405;SDS011;10008;48.682;9.016;2022-10-15T01:43:44;3.53;;;0.60;;
3405;SDS011;10008;48.682;9.016;2022-10-15T01:49:19;3.10;;;0.57;;
3405;SDS011;10008;48.682;9.016;2022-10-15T01:51:50;3.13;;;0.60;;
3405;SDS011;10008;48.682;9.016;2022-10-15T01:54:19;3.97;;;0.60;;
3405;SDS011;10008;48.682;9.016;2022-10-15T01:56:50;2.50;;;0.60;;
3405;SDS011;10008;48.682;9.016;2022-10-15T01:59:21;2.70;;;0.50;;
3405;SDS011;10008;48.682;9.016;2022-10-15T02:01:50;2.60;;;0.60;;
3405;SDS011;10008;48.682;9.016;2022-10-15T02:04:18;3.17;;;0.50;;
3405;SDS011;10008;48.682;9.016;2022-10-15T02:06:45;2.30;;;0.50;;
3405;SDS011;10008;48.682;9.016;2022-10-15T02:15:31;2.43;;;0.50;;
3405;SDS011;10008;48.682;9.016;2022-10-15T02:17:44;2.60;;;0.53;;
3405;SDS011;10008;48.682;9.016;2022-10-15T02:20:14;4.10;;;0.50;;
3405;SDS011;10008;48.682;9.016;2022-10-15T02:22:54;2.13;;;0.40;;
3405;SDS011;10008;48.682;9.016;2022-10-15T02:25:40;2.87;;;0.50;;
3405;SDS011;10008;48.682;9.016;2022-10-15T02:28:08;2.30;;;0.50;;
3405;SDS011;10008;48.682;9.016;2022-10-15T02:30:37;2.43;;;0.50;;
3405;SDS011;10008;48.682;9.016;2022-10-15T02:33:05;2.50;;;0.50;;
3405;SDS011;10008;48.682;9.016;2022-10-15T02:35:32;2.07;;;0.40;;
3405;SDS011;10008;48.682;9.016;2022-10-15T02:37:59;8.07;;;0.63;;
3405;SDS011;10008;48.682;9.016;2022-10-15T02:40:31;3.37;;;0.60;;
3405;SDS011;10008;48.682;9.016;2022-10-15T02:43:02;2.83;;;0.50;;
3405;SDS011;10008;48.682;9.016;2022-10-15T02:45:33;2.73;;;0.70;;
3405;SDS011;10008;48.682;9.016;2022-10-15T02:47:59;3.17;;;0.40;;
3405;SDS011;10008;48.682;9.016;2022-10-15T02:50:25;2.40;;;0.50;;
3405;SDS011;10008;48.682;9.016;2022-10-15T02:52:51;2.77;;;0.50;;
3405;SDS011;10008;48.682;9.016;2022-10-15T02:55:17;2.47;;;0.40;;
3405;SDS011;10008;48.682;9.016;2022-10-15T02:57:42;2.40;;;0.50;;
3405;SDS011;10008;48.682;9.016;2022-10-15T03:00:08;2.73;;;0.40;;
3405;SDS011;10008;48.682;9.016;2022-10-15T03:02:37;2.20;;;0.40;;
3405;SDS011;10008;48.682;9.016;2022-10-15T03:05:03;2.67;;;0.40;;
3405;SDS011;10008;48.682;9.016;2022-10-15T03:07:29;2.30;;;0.40;;
3405;SDS011;10008;48.682;9.016;2022-10-15T03:09:55;4.63;;;0.40;;
3405;SDS011;10008;48.682;9.016;2022-10-15T03:12:22;2.53;;;0.40;;
3405;SDS011;10008;48.682;9.016;2022-10-15T03:14:51;2.17;;;0.30;;
3405;SDS011;10008;48.682;9.016;2022-10-15T03:17:17;3.23;;;0.30;;
3405;SDS011;10008;48.682;9.016;2022-10-15T03:19:43;2.20;;;0.40;;
3405;SDS011;10008;48.682;9.016;2022-10-15T03:22:09;2.57;;;0.40;;
3405;SDS011;10008;48.682;9.016;2022-10-15T03:24:45;2.23;;;0.40;;
3405;SDS011;10008;48.682;9.016;2022-10-15T03:27:10;2.10;;;0.30;;
3405;SDS011;10008;48.682;9.016;2022-10-15T03:29:36;2.30;;;0.40;;
3405;SDS011;10008;48.682;9.016;2022-10-15T03:32:02;2.50;;;0.40;;
3405;SDS011;10008;48.682;9.016;2022-10-15T03:34:28;2.30;;;0.40;;
3405;SDS011;10008;48.682;9.016;2022-10-15T03:36:55;2.17;;;0.37;;
3405;SDS011;10008;48.682;9.016;2022-10-15T03:39:21;3.43;;;0.40;;
3405;SDS011;10008;48.682;9.016;2022-10-15T03:41:51;4.77;;;0.50;;
3405;SDS011;10008;48.682;9.016;2022-10-15T03:44:22;2.20;;;0.40;;
3405;SDS011;10008;48.682;9.016;2022-10-15T03:46:59;3.07;;;0.40;;
3405;SDS011;10008;48.682;9.016;2022-10-15T03:49:36;2.10;;;0.40;;
3405;SDS011;10008;48.682;9.016;2022-10-15T03:52:04;2.20;;;0.40;;
3405;SDS011;10008;48.682;9.016;2022-10-15T03:54:30;2.10;;;0.40;;
3405;SDS011;10008;48.682;9.016;2022-10-15T03:56:56;2.20;;;0.40;;
3405;SDS011;10008;48.682;9.016;2022-10-15T03:59:28;2.13;;;0.30;;
3405;SDS011;10008;48.682;9.016;2022-10-15T04:01:57;2.00;;;0.30;;
3405;SDS011;10008;48.682;9.016;2022-10-15T04:04:23;2.63;;;0.30;;
3405;SDS011;10008;48.682;9.016;2022-10-15T04:06:49;2.93;;;0.33;;
3405;SDS011;10008;48.682;9.016;2022-10-15T04:09:16;1.97;;;0.30;;
3405;SDS011;10008;48.682;9.016;2022-10-15T04:11:42;2.17;;;0.37;;
3405;SDS011;10008;48.682;9.016;2022-10-15T04:14:09;2.40;;;0.30;;
3405;SDS011;10008;48.682;9.016;2022-10-15T04:16:35;2.10;;;0.40;;
3405;SDS011;10008;48.682;9.016;2022-10-15T04:19:10;2.30;;;0.40;;
3405;SDS011;10008;48.682;9.016;2022-10-15T04:21:35;2.10;;;0.30;;
3405;SDS011;10008;48.682;9.016;2022-10-15T04:24:03;2.53;;;0.50;;
3405;SDS011;10008;48.682;9.016;2022-10-15T04:26:34;2.70;;;0.50;;
3405;SDS011;10008;48.682;9.016;2022-10-15T04:29:00;2.20;;;0.40;;
3405;SDS011;10008;48.682;9.016;2022-10-15T04:31:26;3.77;;;0.40;;
3405;SDS011;10008;48.682;9.016;2022-10-15T04:33:52;2.10;;;0.40;;
3405;SDS011;10008;48.682;9.016;2022-10-15T04:36:18;2.20;;;0.40;;
3405;SDS011;10008;48.682;9.016;2022-10-15T04:38:55;2.40;;;0.40;;
3405;SDS011;10008;48.682;9.016;2022-10-15T04:41:30;2.40;;;0.40;;
3405;SDS011;10008;48.682;9.016;2022-10-15T04:44:01;2.40;;;0.50;;
3405;SDS011;10008;48.682;9.016;2022-10-15T04:46:29;2.40;;;0.40;;
3405;SDS011;10008;48.682;9.016;2022-10-15T04:48:58;3.27;;;0.47;;
3405;SDS011;10008;48.682;9.016;2022-10-15T04:51:24;3.50;;;0.40;;
3405;SDS011;10008;48.682;9.016;2022-10-15T04:54:16;2.20;;;0.40;;
3405;SDS011;10008;48.682;9.016;2022-10-15T04:56:54;3.13;;;0.40;;
3405;SDS011;10008;48.682;9.016;2022-10-15T04:59:20;3.97;;;0.40;;
3405;SDS011;10008;48.682;9.016;2022-10-15T05:02:11;3.07;;;0.40;;
3405;SDS011;10008;48.682;9.016;2022-10-15T05:04:37;2.60;;;0.40;;
3405;SDS011;10008;48.682;9.016;2022-10-15T05:07:03;2.20;;;0.40;;
3405;SDS011;10008;48.682;9.016;2022-10-15T05:09:29;2.97;;;0.40;;
3405;SDS011;10008;48.682;9.016;2022-10-15T05:11:56;2.37;;;0.40;;
3405;SDS011;10008;48.682;9.016;2022-10-15T05:14:25;2.50;;;0.50;;
3405;SDS011;10008;48.682;9.016;2022-10-15T05:17:03;3.00;;;0.50;;
3405;SDS011;10008;48.682;9.016;2022-10-15T05:19:34;2.20;;;0.40;;
3405;SDS011;10008;48.682;9.016;2022-10-15T05:22:00;2.20;;;0.40;;
3405;SDS011;10008;48.682;9.016;2022-10-15T05:24:28;4.80;;;0.50;;
3405;SDS011;10008;48.682;9.016;2022-10-15T05:27:08;2.47;;;0.50;;
3405;SDS011;10008;48.682;9.016;2022-10-15T05:29:34;3.40;;;0.60;;
3405;SDS011;10008;48.682;9.016;2022-10-15T05:32:02;2.80;;;0.50;;
3405;SDS011;10008;48.682;9.016;2022-10-15T05:34:28;3.60;;;0.60;;
3405;SDS011;10008;48.682;9.016;2022-10-15T05:37:07;2.70;;;0.50;;
3405;SDS011;10008;48.682;9.016;2022-10-15T05:39:33;2.50;;;0.50;;
3405;SDS011;10008;48.682;9.016;2022-10-15T05:41:59;2.60;;;0.50;;
3405;SDS011;10008;48.682;9.016;2022-10-15T05:44:34;2.40;;;0.50;;
3405;SDS011;10008;48.682;9.016;2022-10-15T05:47:00;5.23;;;0.73;;
3405;SDS011;10008;48.682;9.016;2022-10-15T05:49:26;2.40;;;0.50;;
3405;SDS011;10008;48.682;9.016;2022-10-15T05:52:12;3.20;;;0.70;;
3405;SDS011;10008;48.682;9.016;2022-10-15T05:54:56;3.60;;;0.50;;
3405;SDS011;10008;48.682;9.016;2022-10-15T05:57:22;4.80;;;0.53;;
3405;SDS011;10008;48.682;9.016;2022-10-15T05:59:47;5.10;;;0.70;;
3405;SDS011;10008;48.682;9.016;2022-10-15T06:02:13;3.20;;;0.50;;
3405;SDS011;10008;48.682;9.016;2022-10-15T06:04:40;3.23;;;0.57;;
3405;SDS011;10008;48.682;9.016;2022-10-15T06:07:07;2.50;;;0.50;;
3405;SDS011;10008;48.682;9.016;2022-10-15T06:09:32;2.50;;;0.50;;
3405;SDS011;10008;48.682;9.016;2022-10-15T06:11:58;3.20;;;0.50;;
3405;SDS011;10008;48.682;9.016;2022-10-15T06:14:24;3.13;;;0.50;;
3405;SDS011;10008;48.682;9.016;2022-10-15T06:16:51;3.27;;;0.60;;
3405;SDS011;10008;48.682;9.016;2022-10-15T06:19:18;3.00;;;0.60;;
3405;SDS011;10008;48.682;9.016;2022-10-15T06:21:44;2.80;;;0.63;;
3405;SDS011;10008;48.682;9.016;2022-10-15T06:24:10;4.40;;;0.70;;
3405;SDS011;10008;48.682;9.016;2022-10-15T06:26:36;2.70;;;0.60;;
3405;SDS011;10008;48.682;9.016;2022-10-15T06:29:02;3.43;;;0.67;;
3405;SDS011;10008;48.682;9.016;2022-10-15T06:31:28;2.67;;;0.50;;
3405;SDS011;10008;48.682;9.016;2022-10-15T06:33:53;3.00;;;0.50;;
3405;SDS011;10008;48.682;9.016;2022-10-15T06:36:19;4.20;;;0.70;;
3405;SDS011;10008;48.682;9.016;2022-10-15T06:38:45;4.00;;;0.77;;
3405;SDS011;10008;48.682;9.016;2022-10-15T06:41:11;3.80;;;0.50;;
3405;SDS011;10008;48.682;9.016;2022-10-15T06:43:37;3.63;;;0.70;;
3405;SDS011;10008;48.682;9.016;2022-10-15T06:46:03;2.90;;;0.70;;
3405;SDS011;10008;48.682;9.016;2022-10-15T06:48:30;4.03;;;0.60;;
3405;SDS011;10008;48.682;9.016;2022-10-15T06:51:00;3.30;;;0.70;;
3405;SDS011;10008;48.682;9.016;2022-10-15T06:53:28;3.37;;;0.60;;
3405;SDS011;10008;48.682;9.016;2022-10-15T06:55:59;3.03;;;0.70;;
3405;SDS011;10008;48.682;9.016;2022-10-15T06:58:32;9.33;;;1.00;;
3405;SDS011;10008;48.682;9.016;2022-10-15T07:00:58;3.00;;;0.70;;
3405;SDS011;10008;48.682;9.016;2022-10-15T07:03:28;2.63;;;0.70;;
3405;SDS011;10008;48.682;9.016;2022-10-15T07:05:55;3.47;;;0.80;;
3405;SDS011;10008;48.682;9.016;2022-10-15T07:08:21;4.07;;;0.80;;
3405;SDS011;10008;48.682;9.016;2022-10-15T07:10:48;4.77;;;0.90;;
3405;SDS011;10008;48.682;9.016;2022-10-15T07:13:14;3.30;;;0.70;;
3405;SDS011;10008;48.682;9.016;2022-10-15T07:15:40;2.80;;;0.60;;
3405;SDS011;10008;48.682;9.016;2022-10-15T07:18:06;3.40;;;0.60;;
3405;SDS011;10008;48.682;9.016;2022-10-15T07:20:31;4.50;;;0.67;;
3405;SDS011;10008;48.682;9.016;2022-10-15T07:23:00;3.60;;;0.80;;
3405;SDS011;10008;48.682;9.016;2022-10-15T07:25:31;3.40;;;0.83;;
3405;SDS011;10008;48.682;9.016;2022-10-15T07:27:57;3.00;;;0.70;;
3405;SDS011;10008;48.682;9.016;2022-10-15T07:30:23;4.13;;;0.80;;
3405;SDS011;10008;48.682;9.016;2022-10-15T07:32:54;4.63;;;0.80;;
3405;SDS011;10008;48.682;9.016;2022-10-15T07:35:20;2.87;;;0.60;;
3405;SDS011;10008;48.682;9.016;2022-10-15T07:37:46;3.40;;;0.60;;
3405;SDS011;10008;48.682;9.016;2022-10-15T07:40:13;2.80;;;0.73;;
3405;SDS011;10008;48.682;9.016;2022-10-15T07:42:40;3.40;;;0.70;;
3405;SDS011;10008;48.682;9.016;2022-10-15T07:45:06;2.97;;;0.80;;
3405;SDS011;10008;48.682;9.016;2022-10-15T07:47:32;3.07;;;0.83;;
3405;SDS011;10008;48.682;9.016;2022-10-15T07:49:58;3.10;;;0.80;;
3405;SDS011;10008;48.682;9.016;2022-10-15T07:52:23;2.97;;;0.60;;
3405;SDS011;10008;48.682;9.016;2022-10-15T07:54:49;4.87;;;0.60;;
3405;SDS011;10008;48.682;9.016;2022-10-15T07:57:17;4.23;;;0.70;;
3405;SDS011;10008;48.682;9.016;2022-10-15T07:59:44;3.10;;;0.60;;
3405;SDS011;10008;48.682;9.016;2022-10-15T08:02:13;3.33;;;0.50;;
3405;SDS011;10008;48.682;9.016;2022-10-15T08:04:40;3.67;;;0.60;;
3405;SDS011;10008;48.682;9.016;2022-10-15T08:07:06;2.30;;;0.50;;
3405;SDS011;10008;48.682;9.016;2022-10-15T08:09:32;3.40;;;0.70;;
3405;SDS011;10008;48.682;9.016;2022-10-15T08:11:58;2.60;;;0.67;;
3405;SDS011;10008;48.682;9.016;2022-10-15T08:14:24;2.90;;;0.60;;
3405;SDS011;10008;48.682;9.016;2022-10-15T08:16:49;3.00;;;0.60;;
3405;SDS011;10008;48.682;9.016;2022-10-15T08:19:15;2.93;;;0.63;;
3405;SDS011;10008;48.682;9.016;2022-10-15T08:21:45;2.77;;;0.70;;
3405;SDS011;10008;48.682;9.016;2022-10-15T08:24:11;3.13;;;0.50;;
3405;SDS011;10008;48.682;9.016;2022-10-15T08:26:37;3.23;;;0.60;;
3405;SDS011;10008;48.682;9.016;2022-10-15T08:29:03;3.30;;;0.63;;
3405;SDS011;10008;48.682;9.016;2022-10-15T08:31:29;2.77;;;0.67;;
3405;SDS011;10008;48.682;9.016;2022-10-15T08:33:58;2.50;;;0.60;;
3405;SDS011;10008;48.682;9.016;2022-10-15T08:36:24;3.20;;;0.70;;
3405;SDS011;10008;48.682;9.016;2022-10-15T08:38:50;3.10;;;0.60;;
3405;SDS011;10008;48.682;9.016;2022-10-15T08:41:19;2.90;;;0.60;;
3405;SDS011;10008;48.682;9.016;2022-10-15T08:43:53;3.20;;;0.90;;
3405;SDS011;10008;48.682;9.016;2022-10-15T08:46:21;2.70;;;0.73;;
3405;SDS011;10008;48.682;9.016;2022-10-15T08:49:08;2.57;;;0.60;;
3405;SDS011;10008;48.682;9.016;2022-10-15T08:51:45;2.80;;;0.80;;
3405;SDS011;10008;48.682;9.016;2022-10-15T08:54:18;3.30;;;0.70;;
3405;SDS011;10008;48.682;9.016;2022-10-15T08:56:48;2.70;;;0.60;;
3405;SDS011;10008;48.682;9.016;2022-10-15T09:02:28;2.80;;;0.60;;
3405;SDS011;10008;48.682;9.016;2022-10-15T09:07:52;4.63;;;1.63;;
3405;SDS011;10008;48.682;9.016;2022-10-15T09:10:45;3.80;;;0.60;;
3405;SDS011;10008;48.682;9.016;2022-10-15T09:13:27;2.30;;;0.50;;
3405;SDS011;10008;48.682;9.016;2022-10-15T09:18:45;3.00;;;0.50;;
3405;SDS011;10008;48.682;9.016;2022-10-15T09:21:14;2.53;;;0.60;;
3405;SDS011;10008;48.682;9.016;2022-10-15T09:23:40;2.40;;;0.50;;
3405;SDS011;10008;48.682;9.016;2022-10-15T09:26:14;2.43;;;0.40;;
3405;SDS011;10008;48.682;9.016;2022-10-15T09:31:34;3.43;;;0.60;;
3405;SDS011;10008;48.682;9.016;2022-10-15T09:34:37;2.90;;;0.50;;
3405;SDS011;10008;48.682;9.016;2022-10-15T09:37:28;2.80;;;0.60;;
3405;SDS011;10008;48.682;9.016;2022-10-15T09:42:56;3.03;;;0.60;;
3405;SDS011;10008;48.682;9.016;2022-10-15T09:45:24;3.33;;;0.70;;
3405;SDS011;10008;48.682;9.016;2022-10-15T09:47:50;2.50;;;0.50;;
3405;SDS011;10008;48.682;9.016;2022-10-15T09:50:20;4.13;;;0.60;;
3405;SDS011;10008;48.682;9.016;2022-10-15T09:58:07;2.70;;;0.60;;
3405;SDS011;10008;48.682;9.016;2022-10-15T10:03:21;4.00;;;0.60;;
3405;SDS011;10008;48.682;9.016;2022-10-15T10:05:49;5.67;;;0.70;;
3405;SDS011;10008;48.682;9.016;2022-10-15T10:08:24;4.03;;;0.80;;
3405;SDS011;10008;48.682;9.016;2022-10-15T10:10:57;5.67;;;0.60;;
3405;SDS011;10008;48.682;9.016;2022-10-15T10:13:29;3.07;;;0.60;;
3405;SDS011;10008;48.682;9.016;2022-10-15T10:16:02;3.60;;;0.70;;
3405;SDS011;10008;48.682;9.016;2022-10-15T10:18:30;3.60;;;0.80;;
3405;SDS011;10008;48.682;9.016;2022-10-15T10:20:57;3.43;;;0.60;;
3405;SDS011;10008;48.682;9.016;2022-10-15T10:23:32;3.93;;;0.63;;
3405;SDS011;10008;48.682;9.016;2022-10-15T10:26:06;3.60;;;0.60;;
3405;SDS011;10008;48.682;9.016;2022-10-15T10:28:36;4.50;;;0.90;;
3405;SDS011;10008;48.682;9.016;2022-10-15T10:31:10;3.10;;;0.70;;
3405;SDS011;10008;48.682;9.016;2022-10-15T10:33:41;6.20;;;0.70;;
3405;SDS011;10008;48.682;9.016;2022-10-15T10:36:20;3.10;;;0.80;;
3405;SDS011;10008;48.682;9.016;2022-10-15T10:41:33;7.20;;;0.80;;
3405;SDS011;10008;48.682;9.016;2022-10-15T10:44:24;3.90;;;1.00;;
3405;SDS011;10008;48.682;9.016;2022-10-15T10:47:00;3.10;;;0.70;;
3405;SDS011;10008;48.682;9.016;2022-10-15T10:49:34;6.33;;;0.90;;
3405;SDS011;10008;48.682;9.016;2022-10-15T10:52:02;6.87;;;0.90;;
3405;SDS011;10008;48.682;9.016;2022-10-15T10:54:28;5.07;;;0.80;;
3405;SDS011;10008;48.682;9.016;2022-10-15T10:56:58;5.53;;;0.70;;
3405;SDS011;10008;48.682;9.016;2022-10-15T10:59:30;6.03;;;0.87;;
3405;SDS011;10008;48.682;9.016;2022-10-15T11:02:01;3.10;;;0.70;;
3405;SDS011;10008;48.682;9.016;2022-10-15T11:04:31;3.50;;;0.80;;
3405;SDS011;10008;48.682;9.016;2022-10-15T11:29:10;4.93;;;0.70;;
3405;SDS011;10008;48.682;9.016;2022-10-15T11:34:40;3.27;;;0.70;;
3405;SDS011;10008;48.682;9.016;2022-10-15T11:43:02;3.70;;;0.60;;
3405;SDS011;10008;48.682;9.016;2022-10-15T11:51:12;3.10;;;0.70;;
3405;SDS011;10008;48.682;9.016;2022-10-15T11:56:46;6.00;;;0.80;;
3405;SDS011;10008;48.682;9.016;2022-10-15T11:59:22;5.73;;;0.70;;
3405;SDS011;10008;48.682;9.016;2022-10-15T12:02:09;5.27;;;0.70;;
3405;SDS011;10008;48.682;9.016;2022-10-15T12:07:40;3.20;;;0.70;;
3405;SDS011;10008;48.682;9.016;2022-10-15T12:12:56;2.77;;;0.50;;
3405;SDS011;10008;48.682;9.016;2022-10-15T12:18:37;3.30;;;0.57;;
3405;SDS011;10008;48.682;9.016;2022-10-15T12:23:56;6.90;;;0.87;;
3405;SDS011;10008;48.682;9.016;2022-10-15T12:28:54;3.90;;;0.70;;
3405;SDS011;10008;48.682;9.016;2022-10-15T12:31:21;3.60;;;0.80;;
3405;SDS011;10008;48.682;9.016;2022-10-15T12:36:26;3.53;;;0.90;;
3405;SDS011;10008;48.682;9.016;2022-10-15T12:39:04;4.87;;;0.83;;
3405;SDS011;10008;48.682;9.016;2022-10-15T12:41:46;3.60;;;0.83;;
3405;SDS011;10008;48.682;9.016;2022-10-15T12:46:40;5.10;;;1.27;;
3405;SDS011;10008;48.682;9.016;2022-10-15T12:51:58;3.50;;;0.80;;
3405;SDS011;10008;48.682;9.016;2022-10-15T12:54:33;5.10;;;0.90;;
3405;SDS011;10008;48.682;9.016;2022-10-15T12:57:00;5.63;;;1.13;;
3405;SDS011;10008;48.682;9.016;2022-10-15T12:59:30;4.57;;;0.90;;
3405;SDS011;10008;48.682;9.016;2022-10-15T13:05:08;4.23;;;0.90;;
3405;SDS011;10008;48.682;9.016;2022-10-15T13:07:52;4.40;;;1.07;;
3405;SDS011;10008;48.682;9.016;2022-10-15T13:10:45;4.30;;;0.80;;
3405;SDS011;10008;48.682;9.016;2022-10-15T13:13:15;5.10;;;0.80;;
3405;SDS011;10008;48.682;9.016;2022-10-15T13:15:58;4.47;;;0.90;;
3405;SDS011;10008;48.682;9.016;2022-10-15T13:18:25;3.50;;;0.83;;
3405;SDS011;10008;48.682;9.016;2022-10-15T13:20:54;3.87;;;0.70;;
3405;SDS011;10008;48.682;9.016;2022-10-15T13:23:22;3.97;;;0.80;;
3405;SDS011;10008;48.682;9.016;2022-10-15T13:26:11;5.93;;;1.17;;
3405;SDS011;10008;48.682;9.016;2022-10-15T13:28:58;3.57;;;0.80;;
3405;SDS011;10008;48.682;9.016;2022-10-15T13:31:28;3.90;;;0.90;;
3405;SDS011;10008;48.682;9.016;2022-10-15T13:33:57;3.65;;;0.90;;
3405;SDS011;10008;48.682;9.016;2022-10-15T13:36:30;3.10;;;0.80;;
3405;SDS011;10008;48.682;9.016;2022-10-15T13:39:05;2.70;;;0.70;;
3405;SDS011;10008;48.682;9.016;2022-10-15T13:41:33;4.17;;;0.90;;
3405;SDS011;10008;48.682;9.016;2022-10-15T13:44:02;3.33;;;0.90;;
3405;SDS011;10008;48.682;9.016;2022-10-15T13:46:32;4.67;;;0.90;;
3405;SDS011;10008;48.682;9.016;2022-10-15T13:49:03;4.27;;;1.00;;
3405;SDS011;10008;48.682;9.016;2022-10-15T13:51:40;4.40;;;0.90;;
3405;SDS011;10008;48.682;9.016;2022-10-15T13:54:09;3.22;;;0.80;;
3405;SDS011;10008;48.682;9.016;2022-10-15T13:56:42;4.03;;;0.70;;
3405;SDS011;10008;48.682;9.016;2022-10-15T13:59:16;5.00;;;1.00;;
3405;SDS011;10008;48.682;9.016;2022-10-15T14:01:45;4.53;;;0.90;;
3405;SDS011;10008;48.682;9.016;2022-10-15T14:04:20;6.57;;;0.90;;
3405;SDS011;10008;48.682;9.016;2022-10-15T14:06:54;3.00;;;0.90;;
3405;SDS011;10008;48.682;9.016;2022-10-15T14:09:28;5.70;;;0.70;;
3405;SDS011;10008;48.682;9.016;2022-10-15T14:11:59;3.00;;;0.70;;
3405;SDS011;10008;48.682;9.016;2022-10-15T14:14:33;4.13;;;0.87;;
3405;SDS011;10008;48.682;9.016;2022-10-15T14:17:07;3.50;;;0.77;;
3405;SDS011;10008;48.682;9.016;2022-10-15T14:19:44;3.57;;;0.80;;
3405;SDS011;10008;48.682;9.016;2022-10-15T14:22:30;4.77;;;0.80;;
3405;SDS011;10008;48.682;9.016;2022-10-15T14:24:56;2.93;;;0.70;;
3405;SDS011;10008;48.682;9.016;2022-10-15T14:27:23;4.00;;;0.90;;
3405;SDS011;10008;48.682;9.016;2022-10-15T14:29:51;3.40;;;0.80;;
3405;SDS011;10008;48.682;9.016;2022-10-15T14:32:26;3.90;;;0.80;;
3405;SDS011;10008;48.682;9.016;2022-10-15T14:35:02;4.27;;;0.90;;
3405;SDS011;10008;48.682;9.016;2022-10-15T14:40:07;3.47;;;0.73;;
3405;SDS011;10008;48.682;9.016;2022-10-15T14:43:14;3.10;;;0.70;;
3405;SDS011;10008;48.682;9.016;2022-10-15T14:45:41;3.73;;;0.80;;
3405;SDS011;10008;48.682;9.016;2022-10-15T14:48:18;4.90;;;0.90;;
3405;SDS011;10008;48.682;9.016;2022-10-15T14:50:47;4.03;;;0.70;;
3405;SDS011;10008;48.682;9.016;2022-10-15T14:53:18;3.47;;;0.70;;
3405;SDS011;10008;48.682;9.016;2022-10-15T14:55:57;3.10;;;0.60;;
3405;SDS011;10008;48.682;9.016;2022-10-15T14:58:26;3.20;;;0.80;;
3405;SDS011;10008;48.682;9.016;2022-10-15T15:00:57;3.27;;;0.73;;
3405;SDS011;10008;48.682;9.016;2022-10-15T15:03:28;3.10;;;0.80;;
3405;SDS011;10008;48.682;9.016;2022-10-15T15:06:02;3.47;;;0.70;;
3405;SDS011;10008;48.682;9.016;2022-10-15T15:08:27;2.93;;;0.70;;
3405;SDS011;10008;48.682;9.016;2022-10-15T15:10:54;4.60;;;0.93;;
3405;SDS011;10008;48.682;9.016;2022-10-15T15:13:22;3.23;;;0.80;;
3405;SDS011;10008;48.682;9.016;2022-10-15T15:15:50;3.97;;;0.90;;
3405;SDS011;10008;48.682;9.016;2022-10-15T15:18:16;3.10;;;0.80;;
3405;SDS011;10008;48.682;9.016;2022-10-15T15:20:43;4.00;;;0.67;;
3405;SDS011;10008;48.682;9.016;2022-10-15T15:23:15;5.50;;;0.90;;
3405;SDS011;10008;48.682;9.016;2022-10-15T15:25:46;4.60;;;0.83;;
3405;SDS011;10008;48.682;9.016;2022-10-15T15:28:13;4.20;;;0.70;;
3405;SDS011;10008;48.682;9.016;2022-10-15T15:30:41;4.30;;;1.00;;
3405;SDS011;10008;48.682;9.016;2022-10-15T15:33:11;6.53;;;1.00;;
3405;SDS011;10008;48.682;9.016;2022-10-15T15:35:43;2.63;;;0.50;;
3405;SDS011;10008;48.682;9.016;2022-10-15T15:38:18;3.30;;;0.60;;
3405;SDS011;10008;48.682;9.016;2022-10-15T15:40:46;3.10;;;0.60;;
3405;SDS011;10008;48.682;9.016;2022-10-15T15:43:13;3.00;;;0.53;;
3405;SDS011;10008;48.682;9.016;2022-10-15T15:45:40;3.37;;;0.50;;
3405;SDS011;10008;48.682;9.016;2022-10-15T15:48:06;5.50;;;0.70;;
3405;SDS011;10008;48.682;9.016;2022-10-15T15:50:32;2.90;;;0.50;;
3405;SDS011;10008;48.682;9.016;2022-10-15T15:52:58;5.17;;;0.77;;
3405;SDS011;10008;48.682;9.016;2022-10-15T15:55:24;2.93;;;0.60;;
3405;SDS011;10008;48.682;9.016;2022-10-15T15:57:50;4.40;;;0.70;;
3405;SDS011;10008;48.682;9.016;2022-10-15T16:00:16;5.93;;;0.60;;
3405;SDS011;10008;48.682;9.016;2022-10-15T16:02:42;3.00;;;0.70;;
3405;SDS011;10008;48.682;9.016;2022-10-15T16:05:10;3.40;;;0.70;;
3405;SDS011;10008;48.682;9.016;2022-10-15T16:07:38;2.90;;;0.53;;
3405;SDS011;10008;48.682;9.016;2022-10-15T16:10:04;3.27;;;0.67;;
3405;SDS011;10008;48.682;9.016;2022-10-15T16:12:33;4.33;;;0.80;;
3405;SDS011;10008;48.682;9.016;2022-10-15T16:14:59;3.20;;;0.70;;
3405;SDS011;10008;48.682;9.016;2022-10-15T16:17:25;4.27;;;0.83;;
3405;SDS011;10008;48.682;9.016;2022-10-15T16:19:51;4.60;;;0.80;;
3405;SDS011;10008;48.682;9.016;2022-10-15T16:22:16;5.27;;;1.53;;
3405;SDS011;10008;48.682;9.016;2022-10-15T16:24:42;3.47;;;1.03;;
3405;SDS011;10008;48.682;9.016;2022-10-15T16:27:08;2.93;;;0.70;;
3405;SDS011;10008;48.682;9.016;2022-10-15T16:29:34;3.20;;;0.80;;
3405;SDS011;10008;48.682;9.016;2022-10-15T16:32:00;3.50;;;0.90;;
3405;SDS011;10008;48.682;9.016;2022-10-15T16:34:25;4.00;;;1.23;;
3405;SDS011;10008;48.682;9.016;2022-10-15T16:36:51;3.60;;;0.67;;
3405;SDS011;10008;48.682;9.016;2022-10-15T16:39:17;5.70;;;0.90;;
3405;SDS011;10008;48.682;9.016;2022-10-15T16:41:43;5.27;;;2.60;;
3405;SDS011;10008;48.682;9.016;2022-10-15T16:44:09;5.20;;;0.87;;
3405;SDS011;10008;48.682;9.016;2022-10-15T16:46:34;4.30;;;1.10;;
3405;SDS011;10008;48.682;9.016;2022-10-15T16:49:00;3.87;;;1.10;;
3405;SDS011;10008;48.682;9.016;2022-10-15T16:51:26;4.37;;;1.40;;
3405;SDS011;10008;48.682;9.016;2022-10-15T16:53:52;5.00;;;1.33;;
3405;SDS011;10008;48.682;9.016;2022-10-15T16:56:20;5.80;;;2.50;;
3405;SDS011;10008;48.682;9.016;2022-10-15T16:58:47;5.13;;;2.03;;
3405;SDS011;10008;48.682;9.016;2022-10-15T17:01:18;3.63;;;1.17;;
3405;SDS011;10008;48.682;9.016;2022-10-15T17:03:45;6.13;;;1.40;;
3405;SDS011;10008;48.682;9.016;2022-10-15T17:06:16;6.57;;;1.70;;
3405;SDS011;10008;48.682;9.016;2022-10-15T17:08:48;4.10;;;0.97;;
3405;SDS011;10008;48.682;9.016;2022-10-15T17:11:17;3.90;;;1.10;;
3405;SDS011;10008;48.682;9.016;2022-10-15T17:13:45;5.43;;;1.20;;
3405;SDS011;10008;48.682;9.016;2022-10-15T17:16:16;5.03;;;1.60;;